createdAt,value
2022-12-18T00:01:25.277Z,96.38
2022-12-18T00:03:53.894Z,96.28
2022-12-18T00:06:21.435Z,96.43
2022-12-18T00:08:48.530Z,96.29
2022-12-18T00:11:17.725Z,96.34
2022-12-18T00:13:44.678Z,96.28
2022-12-18T00:16:14.203Z,96.24
2022-12-18T00:18:42.052Z,95.83
2022-12-18T00:21:11.208Z,95.64
2022-12-18T00:23:38.782Z,96.00
2022-12-18T00:26:08.833Z,95.98
2022-12-18T00:28:35.563Z,96.28
2022-12-18T00:31:07.860Z,96.12
2022-12-18T00:33:35.365Z,95.82
2022-12-18T00:36:06.798Z,95.64
2022-12-18T00:38:33.853Z,95.78
2022-12-18T00:41:00.742Z,96.07
2022-12-18T00:43:27.356Z,95.90
2022-12-18T00:45:54.839Z,95.46
2022-12-18T00:48:21.652Z,95.72
2022-12-18T00:50:51.850Z,95.67
2022-12-18T00:53:19.040Z,95.97
2022-12-18T00:55:46.178Z,95.85
2022-12-18T00:58:14.822Z,95.81
2022-12-18T01:00:41.432Z,95.85
2022-12-18T01:03:08.079Z,95.75
2022-12-18T01:05:34.925Z,95.83
2022-12-18T01:08:01.791Z,96.04
2022-12-18T01:10:28.344Z,95.72
2022-12-18T01:12:54.956Z,96.00
2022-12-18T01:15:21.524Z,96.25
2022-12-18T01:17:48.296Z,95.81
2022-12-18T01:20:15.137Z,96.31
2022-12-18T01:22:41.692Z,96.06
2022-12-18T01:25:08.994Z,96.12
2022-12-18T01:27:35.587Z,95.94
2022-12-18T01:30:02.227Z,95.68
2022-12-18T01:32:31.579Z,96.06
2022-12-18T01:34:58.170Z,95.74
2022-12-18T01:37:25.469Z,95.93
2022-12-18T01:39:55.354Z,95.66
2022-12-18T01:42:22.587Z,95.88
2022-12-18T01:45:14.882Z,95.81
2022-12-18T01:48:00.564Z,95.83
2022-12-18T01:50:42.935Z,96.19
2022-12-18T01:53:21.900Z,95.66
2022-12-18T01:55:53.660Z,95.61
2022-12-18T01:58:24.243Z,95.56
2022-12-18T02:00:50.727Z,95.49
2022-12-18T02:03:17.273Z,95.84
2022-12-18T02:06:08.151Z,95.58
2022-12-18T02:08:48.208Z,95.68
2022-12-18T02:11:49.739Z,95.79
2022-12-18T02:14:30.328Z,95.68
2022-12-18T02:17:07.160Z,95.23
2022-12-18T02:19:58.032Z,94.96
2022-12-18T02:22:50.721Z,95.53
2022-12-18T02:25:55.293Z,95.24
2022-12-18T02:28:27.666Z,95.33
2022-12-18T02:30:57.448Z,95.31
2022-12-18T02:33:26.626Z,95.42
2022-12-18T02:35:54.865Z,95.66
2022-12-18T02:38:22.103Z,95.34
2022-12-18T02:40:51.378Z,95.10
2022-12-18T02:43:17.940Z,95.24
2022-12-18T02:45:57.445Z,95.00
2022-12-18T02:48:27.680Z,94.70
2022-12-18T02:51:19.319Z,94.75
2022-12-18T02:54:16.091Z,95.13
2022-12-18T02:56:50.109Z,94.95
2022-12-18T02:59:25.018Z,94.71
2022-12-18T03:02:02.982Z,95.01
2022-12-18T03:04:40.195Z,94.17
2022-12-18T03:07:14.026Z,94.88
2022-12-18T03:09:45.748Z,94.87
2022-12-18T03:12:27.878Z,94.54
2022-12-18T03:15:04.944Z,94.52
2022-12-18T03:17:34.500Z,94.31
2022-12-18T03:20:08.487Z,94.39
2022-12-18T03:22:38.141Z,94.75
2022-12-18T03:25:09.135Z,94.34
2022-12-18T03:27:45.366Z,94.37
2022-12-18T03:30:14.526Z,93.88
2022-12-18T03:32:50.019Z,93.83
2022-12-18T03:35:22.546Z,93.90
2022-12-18T03:37:49.491Z,93.91
2022-12-18T03:40:16.317Z,93.73
2022-12-18T03:43:00.998Z,94.04
2022-12-18T03:45:43.783Z,93.89
2022-12-18T03:48:20.118Z,93.60
2022-12-18T03:51:01.274Z,94.29
2022-12-18T03:53:51.504Z,93.51
2022-12-18T03:56:20.227Z,93.70
2022-12-18T03:58:48.116Z,94.14
2022-12-18T04:01:17.619Z,93.87
2022-12-18T04:03:46.898Z,93.32
2022-12-18T04:06:15.147Z,93.68
2022-12-18T04:08:42.504Z,93.47
2022-12-18T04:11:09.203Z,93.73
2022-12-18T04:13:39.223Z,93.69
2022-12-18T04:16:06.318Z,93.35
2022-12-18T04:18:33.202Z,93.88
2022-12-18T04:20:59.706Z,93.39
2022-12-18T04:23:26.409Z,93.34
2022-12-18T04:25:53.046Z,93.50
2022-12-18T04:28:19.622Z,93.47
2022-12-18T04:30:49.610Z,93.40
2022-12-18T04:33:16.255Z,93.50
2022-12-18T04:35:43.476Z,93.63
2022-12-18T04:38:13.509Z,93.86
2022-12-18T04:40:40.146Z,93.98
2022-12-18T04:43:08.354Z,93.61
2022-12-18T04:45:35.149Z,93.74
2022-12-18T04:48:03.396Z,93.89
2022-12-18T04:50:30.748Z,93.62
2022-12-18T04:52:57.561Z,93.11
2022-12-18T04:55:23.939Z,93.47
2022-12-18T04:57:50.410Z,93.23
2022-12-18T05:00:17.094Z,94.01
2022-12-18T05:02:43.773Z,93.67
2022-12-18T05:05:10.464Z,93.27
2022-12-18T05:07:37.295Z,93.81
2022-12-18T05:10:04.487Z,93.84
2022-12-18T05:12:32.718Z,93.48
2022-12-18T05:14:59.390Z,93.44
2022-12-18T05:17:26.250Z,93.59
2022-12-18T05:19:52.690Z,93.52
2022-12-18T05:22:19.171Z,93.65
2022-12-18T05:24:45.565Z,93.22
2022-12-18T05:27:12.324Z,93.62
2022-12-18T05:29:38.752Z,93.23
2022-12-18T05:32:05.277Z,93.10
2022-12-18T05:34:33.268Z,92.95
2022-12-18T05:36:59.673Z,93.36
2022-12-18T05:39:26.252Z,92.68
2022-12-18T05:41:52.746Z,93.28
2022-12-18T05:44:19.319Z,93.14
2022-12-18T05:46:45.850Z,92.66
2022-12-18T05:49:15.296Z,92.73
2022-12-18T05:51:41.727Z,92.58
2022-12-18T05:54:09.034Z,92.54
2022-12-18T05:56:35.508Z,92.99
2022-12-18T05:59:02.287Z,92.69
2022-12-18T06:01:29.503Z,92.74
2022-12-18T06:03:56.152Z,93.00
2022-12-18T06:06:25.518Z,92.40
2022-12-18T06:08:52.983Z,92.86
2022-12-18T06:11:22.360Z,92.59
2022-12-18T06:13:57.920Z,92.04
2022-12-18T06:16:25.512Z,92.40
2022-12-18T06:18:52.528Z,92.60
2022-12-18T06:21:18.903Z,92.47
2022-12-18T06:23:45.292Z,92.28
2022-12-18T06:26:13.250Z,92.26
2022-12-18T06:28:40.486Z,92.10
2022-12-18T06:31:08.094Z,92.42
2022-12-18T06:33:35.483Z,92.34
2022-12-18T06:36:04.420Z,92.01
2022-12-18T06:38:32.558Z,91.89
2022-12-18T06:40:58.927Z,92.21
2022-12-18T06:43:25.554Z,92.02
2022-12-18T06:45:53.873Z,91.68
2022-12-18T06:48:21.006Z,92.39
2022-12-18T06:50:47.814Z,91.79
2022-12-18T06:53:17.107Z,91.57
2022-12-18T06:55:44.152Z,92.35
2022-12-18T06:58:10.848Z,92.18
2022-12-18T07:00:38.042Z,91.82
2022-12-18T07:03:04.770Z,91.88
2022-12-18T07:05:31.619Z,92.17
2022-12-18T07:07:59.254Z,92.27
2022-12-18T07:10:25.764Z,92.26
2022-12-18T07:12:52.216Z,91.84
2022-12-18T07:15:18.670Z,92.25
2022-12-18T07:17:45.219Z,91.71
2022-12-18T07:20:11.983Z,91.74
2022-12-18T07:22:38.447Z,91.69
2022-12-18T07:25:05.487Z,92.06
2022-12-18T07:27:32.008Z,92.32
2022-12-18T07:29:58.557Z,92.30
2022-12-18T07:32:24.906Z,92.24
2022-12-18T07:34:51.268Z,91.44
2022-12-18T07:37:17.695Z,91.96
2022-12-18T07:39:44.141Z,91.89
2022-12-18T07:42:29.008Z,91.76
2022-12-18T07:44:55.440Z,91.79
2022-12-18T07:47:22.132Z,91.81
2022-12-18T07:49:48.534Z,91.87
2022-12-18T07:52:15.202Z,91.63
2022-12-18T07:54:41.914Z,91.76
2022-12-18T07:57:16.424Z,92.43
2022-12-18T07:59:55.198Z,91.73
2022-12-18T08:02:21.634Z,92.09
2022-12-18T08:04:48.202Z,92.52
2022-12-18T08:07:14.550Z,92.61
2022-12-18T08:09:40.969Z,92.23
2022-12-18T08:12:07.426Z,91.66
2022-12-18T08:14:33.754Z,91.84
2022-12-18T08:17:00.215Z,91.87
2022-12-18T08:19:26.828Z,91.92
2022-12-18T08:21:53.189Z,91.85
2022-12-18T08:24:19.552Z,92.39
2022-12-18T08:27:01.081Z,92.28
2022-12-18T08:29:32.981Z,91.77
2022-12-18T08:31:59.565Z,92.17
2022-12-18T08:34:26.011Z,92.51
2022-12-18T08:36:52.368Z,92.49
2022-12-18T08:39:19.298Z,92.79
2022-12-18T08:42:10.218Z,91.98
2022-12-18T08:44:39.843Z,92.68
2022-12-18T08:47:07.639Z,91.71
2022-12-18T08:49:35.642Z,92.16
2022-12-18T08:52:03.787Z,92.23
2022-12-18T08:54:30.682Z,92.02
2022-12-18T08:56:57.028Z,91.96
2022-12-18T08:59:24.472Z,92.33
2022-12-18T09:01:51.018Z,92.58
2022-12-18T09:04:18.156Z,92.57
2022-12-18T09:06:44.694Z,91.84
2022-12-18T09:09:11.443Z,92.52
2022-12-18T09:11:38.031Z,92.65
2022-12-18T09:14:06.562Z,92.14
2022-12-18T09:16:35.753Z,92.79
2022-12-18T09:19:05.285Z,92.04
2022-12-18T09:21:35.864Z,91.97
2022-12-18T09:24:04.344Z,92.29
2022-12-18T09:26:33.291Z,91.84
2022-12-18T09:28:59.924Z,91.68
2022-12-18T09:31:26.457Z,92.23
2022-12-18T09:33:53.127Z,91.82
2022-12-18T09:36:20.041Z,91.52
2022-12-18T09:38:48.637Z,91.37
2022-12-18T09:41:44.371Z,91.72
2022-12-18T09:44:30.715Z,91.87
2022-12-18T09:47:19.445Z,91.52
2022-12-18T09:49:49.790Z,91.93
2022-12-18T09:52:36.759Z,91.38
2022-12-18T09:55:22.099Z,92.04
2022-12-18T09:58:05.529Z,91.44
2022-12-18T10:00:33.371Z,91.42
2022-12-18T10:03:04.461Z,91.19
2022-12-18T10:06:02.987Z,91.38
2022-12-18T10:08:38.559Z,91.25
2022-12-18T10:11:20.908Z,91.26
2022-12-18T10:13:53.487Z,91.39
2022-12-18T10:16:43.359Z,91.42
2022-12-18T10:19:36.210Z,90.76
2022-12-18T10:22:22.208Z,90.80
2022-12-18T10:25:00.980Z,90.77
2022-12-18T10:27:29.500Z,90.68
2022-12-18T10:29:56.849Z,90.38
2022-12-18T10:32:26.742Z,90.24
2022-12-18T10:35:00.162Z,90.36
2022-12-18T10:37:29.944Z,90.33
2022-12-18T10:40:21.798Z,90.26
2022-12-18T10:43:04.957Z,90.01
2022-12-18T10:45:31.362Z,90.03
2022-12-18T10:47:58.080Z,89.60
2022-12-18T10:51:08.617Z,89.56
2022-12-18T10:53:31.916Z,89.65
2022-12-18T10:56:03.140Z,89.26
2022-12-18T10:58:32.520Z,89.52
2022-12-18T11:01:17.124Z,89.76
2022-12-18T11:03:45.380Z,89.32
2022-12-18T11:06:22.681Z,89.55
2022-12-18T11:09:13.231Z,89.16
2022-12-18T11:11:41.195Z,89.11
2022-12-18T11:14:22.579Z,88.62
2022-12-18T11:17:24.179Z,88.57
2022-12-18T11:19:41.967Z,88.19
2022-12-18T11:22:24.275Z,88.08
2022-12-18T11:25:30.871Z,88.27
2022-12-18T11:27:52.239Z,87.76
2022-12-18T11:30:29.895Z,87.71
2022-12-18T11:33:07.515Z,87.75
2022-12-18T11:35:51.604Z,87.39
2022-12-18T11:38:27.862Z,87.08
2022-12-18T11:41:03.063Z,86.57
2022-12-18T11:43:53.937Z,86.76
2022-12-18T11:46:35.784Z,86.33
2022-12-18T11:49:09.571Z,86.77
2022-12-18T11:51:49.711Z,86.60
2022-12-18T11:54:17.167Z,86.57
2022-12-18T11:56:59.289Z,86.38
2022-12-18T12:00:03.378Z,86.10
2022-12-18T12:02:55.962Z,85.60
2022-12-18T12:05:39.051Z,85.41
2022-12-18T12:08:27.279Z,85.45
2022-12-18T12:11:16.818Z,85.19
2022-12-18T12:13:50.340Z,85.26
2022-12-18T12:16:26.077Z,85.15
2022-12-18T12:19:14.167Z,85.01
2022-12-18T12:21:43.110Z,84.65
2022-12-18T12:24:36.223Z,84.70
2022-12-18T12:27:31.409Z,84.52
2022-12-18T12:30:12.765Z,84.37
2022-12-18T12:32:45.069Z,84.21
2022-12-18T12:35:38.729Z,84.03
2022-12-18T12:38:05.072Z,83.92
2022-12-18T12:40:57.068Z,83.81
2022-12-18T12:43:27.668Z,84.10
2022-12-18T12:46:09.600Z,83.73
2022-12-18T12:48:49.397Z,83.39
2022-12-18T12:51:23.590Z,83.33
2022-12-18T12:53:51.102Z,83.68
2022-12-18T12:56:22.236Z,83.19
2022-12-18T12:59:23.524Z,82.99
2022-12-18T13:02:00.704Z,82.88
2022-12-18T13:04:45.469Z,82.97
2022-12-18T13:07:24.272Z,82.79
2022-12-18T13:10:13.507Z,83.09
2022-12-18T13:13:03.251Z,82.52
2022-12-18T13:15:40.845Z,82.60
2022-12-18T13:18:10.369Z,82.47
2022-12-18T13:20:40.216Z,82.54
2022-12-18T13:23:24.758Z,82.55
2022-12-18T13:25:55.583Z,82.62
2022-12-18T13:28:34.571Z,82.34
2022-12-18T13:31:02.973Z,82.11
2022-12-18T13:33:29.646Z,82.24
2022-12-18T13:36:26.409Z,81.84
2022-12-18T13:39:16.452Z,81.66
2022-12-18T13:42:12.283Z,82.34
2022-12-18T13:44:41.875Z,82.08
2022-12-18T13:47:29.361Z,82.17
2022-12-18T13:49:57.077Z,81.94
2022-12-18T13:52:27.105Z,81.80
2022-12-18T13:54:55.894Z,82.14
2022-12-18T13:57:32.984Z,82.20
2022-12-18T14:00:25.485Z,82.17
2022-12-18T14:02:53.000Z,81.83
2022-12-18T14:05:32.881Z,81.87
2022-12-18T14:08:11.924Z,81.99
2022-12-18T14:10:49.969Z,81.82
2022-12-18T14:13:24.209Z,81.96
2022-12-18T14:15:51.346Z,81.94
2022-12-18T14:18:26.261Z,81.38
2022-12-18T14:20:57.744Z,81.54
2022-12-18T14:23:40.322Z,81.60
2022-12-18T14:26:29.982Z,81.21
2022-12-18T14:29:19.486Z,81.42
2022-12-18T14:31:46.648Z,81.39
2022-12-18T14:34:17.138Z,81.15
2022-12-18T14:36:54.213Z,81.21
2022-12-18T14:39:21.750Z,81.02
2022-12-18T14:41:52.595Z,80.81
2022-12-18T14:44:18.951Z,80.92
2022-12-18T14:46:50.333Z,80.63
2022-12-18T14:49:27.958Z,80.66
2022-12-18T14:51:57.472Z,81.03
2022-12-18T14:54:25.836Z,80.62
2022-12-18T14:57:00.940Z,80.49
2022-12-18T14:59:29.203Z,80.58
2022-12-18T15:02:09.480Z,80.09
2022-12-18T15:04:42.478Z,80.30
2022-12-18T15:07:20.666Z,80.03
2022-12-18T15:10:05.079Z,80.41
2022-12-18T15:12:37.871Z,80.24
2022-12-18T15:15:05.860Z,80.39
2022-12-18T15:17:32.500Z,80.20
2022-12-18T15:20:05.010Z,80.25
2022-12-18T15:22:35.976Z,79.80
2022-12-18T15:25:04.561Z,79.70
2022-12-18T15:27:35.895Z,79.70
2022-12-18T15:30:08.802Z,79.51
2022-12-18T15:32:37.417Z,79.84
2022-12-18T15:35:10.355Z,79.75
2022-12-18T15:37:36.733Z,79.42
2022-12-18T15:40:04.000Z,79.31
2022-12-18T15:42:49.499Z,79.42
2022-12-18T15:45:16.570Z,79.38
2022-12-18T15:47:45.199Z,79.29
2022-12-18T15:50:11.724Z,79.29
2022-12-18T15:52:42.924Z,79.45
2022-12-18T15:55:39.742Z,79.47
2022-12-18T15:58:08.386Z,79.57
2022-12-18T16:00:37.528Z,79.34
2022-12-18T16:03:05.189Z,79.18
2022-12-18T16:05:32.620Z,79.59
2022-12-18T16:07:59.300Z,79.37
2022-12-18T16:10:27.132Z,78.85
2022-12-18T16:12:53.785Z,78.76
2022-12-18T16:15:24.511Z,78.60
2022-12-18T16:17:52.564Z,78.69
2022-12-18T16:20:21.978Z,78.99
2022-12-18T16:22:50.204Z,79.03
2022-12-18T16:25:22.237Z,78.88
2022-12-18T16:27:49.364Z,78.48
2022-12-18T16:30:18.932Z,78.23
2022-12-18T16:32:45.579Z,78.36
2022-12-18T16:35:14.239Z,78.37
2022-12-18T16:37:45.852Z,78.28
2022-12-18T16:40:14.863Z,78.51
2022-12-18T16:42:43.445Z,78.51
2022-12-18T16:45:12.544Z,78.12
2022-12-18T16:47:39.387Z,78.25
2022-12-18T16:50:06.998Z,78.10
2022-12-18T16:52:33.568Z,78.13
2022-12-18T16:55:00.100Z,77.98
2022-12-18T16:57:26.903Z,77.73
2022-12-18T16:59:53.779Z,78.23
2022-12-18T17:02:24.117Z,77.76
2022-12-18T17:04:54.169Z,77.88
2022-12-18T17:07:23.930Z,77.70
2022-12-18T17:09:51.157Z,77.72
2022-12-18T17:12:18.150Z,77.77
2022-12-18T17:14:45.096Z,77.81
2022-12-18T17:17:26.927Z,77.30
2022-12-18T17:19:53.503Z,77.90
2022-12-18T17:22:21.644Z,77.57
2022-12-18T17:24:48.081Z,77.85
2022-12-18T17:27:15.273Z,77.48
2022-12-18T17:29:47.273Z,77.50
2022-12-18T17:32:15.716Z,77.73
2022-12-18T17:34:42.160Z,77.46
2022-12-18T17:37:09.091Z,77.53
2022-12-18T17:39:35.632Z,77.75
2022-12-18T17:42:02.134Z,77.59
2022-12-18T17:44:28.675Z,77.77
2022-12-18T17:46:55.377Z,77.65
2022-12-18T17:49:21.992Z,77.79
2022-12-18T17:51:48.827Z,78.05
2022-12-18T17:54:15.308Z,77.87
2022-12-18T17:56:41.777Z,77.70
2022-12-18T17:59:08.249Z,77.62
2022-12-18T18:01:38.445Z,77.62
2022-12-18T18:04:09.071Z,77.87
2022-12-18T18:06:38.694Z,77.73
2022-12-18T18:09:06.641Z,77.43
2022-12-18T18:11:56.492Z,77.73
2022-12-18T18:14:23.163Z,77.46
2022-12-18T18:16:52.509Z,77.88
2022-12-18T18:19:24.100Z,77.82
2022-12-18T18:21:52.206Z,77.47
2022-12-18T18:24:20.881Z,77.98
2022-12-18T18:26:47.329Z,77.83
2022-12-18T18:29:20.092Z,77.70
2022-12-18T18:31:46.775Z,77.60
2022-12-18T18:34:20.491Z,77.69
2022-12-18T18:36:46.920Z,77.89
2022-12-18T18:39:14.193Z,77.53
2022-12-18T18:41:47.737Z,77.89
2022-12-18T18:44:15.943Z,77.67
2022-12-18T18:46:42.416Z,77.63
2022-12-18T18:49:09.657Z,77.72
2022-12-18T18:51:36.165Z,77.69
2022-12-18T18:54:02.821Z,77.53
2022-12-18T18:59:17.083Z,77.50
2022-12-18T19:01:44.098Z,77.54
2022-12-18T19:04:10.876Z,77.18
2022-12-18T19:06:37.304Z,77.25
2022-12-18T19:09:04.906Z,77.21
2022-12-18T19:11:49.772Z,77.30
2022-12-18T19:14:16.725Z,77.11
2022-12-18T19:16:45.363Z,76.90
2022-12-18T19:19:12.939Z,76.93
2022-12-18T19:21:39.720Z,76.32
2022-12-18T19:24:06.621Z,76.50
2022-12-18T19:26:35.846Z,76.85
2022-12-18T19:29:09.139Z,76.45
2022-12-18T19:31:37.328Z,76.54
2022-12-18T19:34:06.973Z,76.37
2022-12-18T19:36:35.576Z,76.05
2022-12-18T19:39:07.393Z,76.60
2022-12-18T19:41:34.036Z,76.39
2022-12-18T19:44:07.444Z,76.08
2022-12-18T19:46:34.605Z,76.45
2022-12-18T19:49:01.084Z,76.23
2022-12-18T19:51:29.648Z,76.28
2022-12-18T19:53:59.402Z,76.76
2022-12-18T19:56:29.134Z,77.44
2022-12-18T19:58:55.670Z,78.14
2022-12-18T20:01:23.653Z,79.10
2022-12-18T20:03:51.694Z,79.47
2022-12-18T20:06:31.517Z,80.48
2022-12-18T20:09:01.544Z,81.41
2022-12-18T20:11:32.086Z,81.98
2022-12-18T20:14:01.447Z,82.33
2022-12-18T20:16:28.006Z,83.11
2022-12-18T20:18:54.817Z,83.39
2022-12-18T20:21:21.494Z,83.87
2022-12-18T20:23:47.911Z,84.35
2022-12-18T20:26:14.399Z,84.92
2022-12-18T20:28:40.910Z,85.06
2022-12-18T20:31:08.375Z,85.54
2022-12-18T20:33:37.167Z,85.98
2022-12-18T20:36:06.538Z,86.66
2022-12-18T20:38:35.343Z,86.94
2022-12-18T20:41:06.600Z,87.15
2022-12-18T20:43:33.064Z,87.48
2022-12-18T20:46:10.845Z,88.00
2022-12-18T20:48:37.274Z,88.03
2022-12-18T20:51:09.090Z,88.53
2022-12-18T20:53:36.138Z,88.66
2022-12-18T20:56:08.768Z,89.19
2022-12-18T20:58:36.058Z,89.30
2022-12-18T21:01:09.585Z,89.66
2022-12-18T21:03:36.515Z,90.17
2022-12-18T21:06:03.479Z,90.35
2022-12-18T21:08:29.987Z,90.97
2022-12-18T21:10:56.448Z,91.23
2022-12-18T21:13:23.690Z,91.46
2022-12-18T21:15:54.034Z,91.87
2022-12-18T21:18:20.618Z,91.96
2022-12-18T21:20:47.254Z,91.77
2022-12-18T21:23:16.323Z,92.20
2022-12-18T21:25:44.011Z,92.31
2022-12-18T21:28:12.233Z,92.63
2022-12-18T21:30:38.821Z,92.66
2022-12-18T21:33:05.311Z,92.77
2022-12-18T21:35:32.120Z,93.27
2022-12-18T21:37:58.642Z,93.19
2022-12-18T21:40:25.207Z,93.57
2022-12-18T21:43:10.559Z,93.87
2022-12-18T21:45:41.359Z,93.82
2022-12-18T21:48:07.751Z,94.26
2022-12-18T21:50:34.202Z,94.31
2022-12-18T21:53:00.649Z,94.17
2022-12-18T21:55:27.064Z,94.70
2022-12-18T21:57:54.698Z,94.53
2022-12-18T22:00:21.551Z,94.99
2022-12-18T22:02:49.639Z,95.23
2022-12-18T22:05:32.283Z,95.45
2022-12-18T22:07:58.751Z,95.22
2022-12-18T22:10:25.150Z,95.68
2022-12-18T22:12:54.815Z,95.64
2022-12-18T22:15:22.053Z,95.81
2022-12-18T22:17:54.149Z,95.94
2022-12-18T22:20:26.863Z,96.39
2022-12-18T22:22:53.492Z,96.31
2022-12-18T22:25:19.990Z,96.84
2022-12-18T22:28:06.488Z,96.77
2022-12-18T22:30:33.050Z,96.67
2022-12-18T22:32:59.635Z,96.84
2022-12-18T22:35:26.141Z,97.02
2022-12-18T22:37:52.736Z,97.28
2022-12-18T22:40:24.656Z,97.45
2022-12-18T22:42:53.030Z,97.47
2022-12-18T22:45:22.814Z,97.34
2022-12-18T22:47:49.386Z,97.51
2022-12-18T22:50:15.963Z,97.91
2022-12-18T22:52:42.702Z,97.76
2022-12-18T22:55:09.469Z,97.86
2022-12-18T22:57:36.183Z,97.84
2022-12-18T23:00:05.554Z,98.37
2022-12-18T23:02:33.318Z,98.45
2022-12-18T23:04:59.861Z,98.26
2022-12-18T23:07:28.662Z,98.67
2022-12-18T23:10:00.740Z,98.49
2022-12-18T23:12:27.722Z,98.56
2022-12-18T23:14:54.605Z,98.70
2022-12-18T23:17:21.179Z,98.69
2022-12-18T23:19:51.124Z,98.44
2022-12-18T23:22:17.725Z,98.73
2022-12-18T23:24:44.365Z,98.74
2022-12-18T23:27:11.784Z,98.68
2022-12-18T23:29:39.167Z,99.16
2022-12-18T23:32:05.676Z,98.86
2022-12-18T23:34:32.188Z,98.90
2022-12-18T23:36:58.755Z,99.04
2022-12-18T23:39:29.831Z,98.88
2022-12-18T23:41:58.200Z,99.09
2022-12-18T23:44:25.097Z,99.21
2022-12-18T23:46:51.579Z,99.62
2022-12-18T23:49:18.117Z,99.36
2022-12-18T23:51:44.528Z,99.51
2022-12-18T23:54:11.101Z,99.77
2022-12-18T23:56:37.669Z,99.88
2022-12-18T23:59:04.307Z,100.00
